sensor_id;sensor_type;location;lat;lon;timestamp;P1;durP1;ratioP1;P2;durP2;ratioP2
45887;SDS011;31595;51.418;7.572;2022-12-18T00:01:20;12.25;;;7.28;;
45887;SDS011;31595;51.418;7.572;2022-12-18T00:03:50;11.27;;;6.32;;
45887;SDS011;31595;51.418;7.572;2022-12-18T00:06:18;13.82;;;7.60;;
45887;SDS011;31595;51.418;7.572;2022-12-18T00:08:45;10.00;;;6.00;;
45887;SDS011;31595;51.418;7.572;2022-12-18T00:11:14;18.15;;;11.00;;
45887;SDS011;31595;51.418;7.572;2022-12-18T00:13:42;25.60;;;15.77;;
45887;SDS011;31595;51.418;7.572;2022-12-18T00:16:11;22.17;;;13.48;;
45887;SDS011;31595;51.418;7.572;2022-12-18T00:18:41;21.95;;;12.15;;
45887;SDS011;31595;51.418;7.572;2022-12-18T00:21:09;14.80;;;9.10;;
45887;SDS011;31595;51.418;7.572;2022-12-18T00:23:38;12.48;;;7.65;;
45887;SDS011;31595;51.418;7.572;2022-12-18T00:26:09;14.57;;;7.47;;
45887;SDS011;31595;51.418;7.572;2022-12-18T00:28:44;13.52;;;8.52;;
45887;SDS011;31595;51.418;7.572;2022-12-18T00:31:14;11.73;;;8.05;;
45887;SDS011;31595;51.418;7.572;2022-12-18T00:33:45;13.23;;;8.27;;
45887;SDS011;31595;51.418;7.572;2022-12-18T00:36:14;13.88;;;8.13;;
45887;SDS011;31595;51.418;7.572;2022-12-18T00:38:43;11.13;;;7.60;;
45887;SDS011;31595;51.418;7.572;2022-12-18T00:41:11;13.18;;;6.35;;
45887;SDS011;31595;51.418;7.572;2022-12-18T00:44:00;12.45;;;6.95;;
45887;SDS011;31595;51.418;7.572;2022-12-18T00:46:26;12.07;;;6.90;;
45887;SDS011;31595;51.418;7.572;2022-12-18T00:48:55;14.77;;;7.60;;
45887;SDS011;31595;51.418;7.572;2022-12-18T00:51:23;12.18;;;7.72;;
45887;SDS011;31595;51.418;7.572;2022-12-18T00:53:50;12.95;;;7.28;;
45887;SDS011;31595;51.418;7.572;2022-12-18T00:56:18;10.77;;;6.97;;
45887;SDS011;31595;51.418;7.572;2022-12-18T00:58:48;12.10;;;7.47;;
45887;SDS011;31595;51.418;7.572;2022-12-18T01:01:16;14.68;;;8.63;;
45887;SDS011;31595;51.418;7.572;2022-12-18T01:03:43;12.75;;;7.63;;
45887;SDS011;31595;51.418;7.572;2022-12-18T01:06:14;10.55;;;6.47;;
45887;SDS011;31595;51.418;7.572;2022-12-18T01:08:42;11.27;;;7.72;;
45887;SDS011;31595;51.418;7.572;2022-12-18T01:11:10;10.45;;;6.95;;
45887;SDS011;31595;51.418;7.572;2022-12-18T01:13:38;9.25;;;5.97;;
45887;SDS011;31595;51.418;7.572;2022-12-18T01:16:06;11.65;;;6.00;;
45887;SDS011;31595;51.418;7.572;2022-12-18T01:18:34;11.23;;;6.20;;
45887;SDS011;31595;51.418;7.572;2022-12-18T01:21:05;10.98;;;6.35;;
45887;SDS011;31595;51.418;7.572;2022-12-18T01:23:34;11.60;;;6.30;;
45887;SDS011;31595;51.418;7.572;2022-12-18T01:26:05;11.40;;;6.15;;
45887;SDS011;31595;51.418;7.572;2022-12-18T01:28:33;9.80;;;5.43;;
45887;SDS011;31595;51.418;7.572;2022-12-18T01:31:13;11.57;;;6.13;;
45887;SDS011;31595;51.418;7.572;2022-12-18T01:33:43;12.13;;;6.18;;
45887;SDS011;31595;51.418;7.572;2022-12-18T01:36:17;9.95;;;6.05;;
45887;SDS011;31595;51.418;7.572;2022-12-18T01:38:47;11.70;;;6.40;;
45887;SDS011;31595;51.418;7.572;2022-12-18T01:41:16;12.70;;;7.10;;
45887;SDS011;31595;51.418;7.572;2022-12-18T01:43:47;19.60;;;10.13;;
45887;SDS011;31595;51.418;7.572;2022-12-18T01:46:17;24.73;;;14.48;;
45887;SDS011;31595;51.418;7.572;2022-12-18T01:48:46;21.07;;;11.37;;
45887;SDS011;31595;51.418;7.572;2022-12-18T01:51:15;14.50;;;8.75;;
45887;SDS011;31595;51.418;7.572;2022-12-18T01:53:47;11.73;;;6.47;;
45887;SDS011;31595;51.418;7.572;2022-12-18T01:56:16;11.75;;;6.85;;
45887;SDS011;31595;51.418;7.572;2022-12-18T02:03:43;10.10;;;6.35;;
45887;SDS011;31595;51.418;7.572;2022-12-18T02:06:13;11.35;;;7.18;;
45887;SDS011;31595;51.418;7.572;2022-12-18T02:08:45;13.40;;;7.57;;
45887;SDS011;31595;51.418;7.572;2022-12-18T02:11:24;16.83;;;8.68;;
45887;SDS011;31595;51.418;7.572;2022-12-18T02:14:00;18.90;;;10.85;;
45887;SDS011;31595;51.418;7.572;2022-12-18T02:16:37;26.23;;;13.07;;
45887;SDS011;31595;51.418;7.572;2022-12-18T02:19:15;35.72;;;16.25;;
45887;SDS011;31595;51.418;7.572;2022-12-18T02:21:56;26.65;;;15.27;;
45887;SDS011;31595;51.418;7.572;2022-12-18T02:24:33;31.48;;;15.77;;
45887;SDS011;31595;51.418;7.572;2022-12-18T02:27:09;26.48;;;12.07;;
45887;SDS011;31595;51.418;7.572;2022-12-18T02:29:39;22.63;;;10.85;;
45887;SDS011;31595;51.418;7.572;2022-12-18T02:32:14;19.95;;;10.63;;
45887;SDS011;31595;51.418;7.572;2022-12-18T02:34:44;19.25;;;10.57;;
45887;SDS011;31595;51.418;7.572;2022-12-18T02:37:16;19.48;;;10.20;;
45887;SDS011;31595;51.418;7.572;2022-12-18T02:39:47;18.00;;;10.27;;
45887;SDS011;31595;51.418;7.572;2022-12-18T02:42:17;16.63;;;9.45;;
45887;SDS011;31595;51.418;7.572;2022-12-18T02:44:46;17.05;;;10.70;;
45887;SDS011;31595;51.418;7.572;2022-12-18T02:47:15;13.60;;;7.32;;
45887;SDS011;31595;51.418;7.572;2022-12-18T02:49:49;18.13;;;9.38;;
45887;SDS011;31595;51.418;7.572;2022-12-18T02:52:28;11.93;;;8.00;;
45887;SDS011;31595;51.418;7.572;2022-12-18T02:55:06;12.43;;;7.72;;
45887;SDS011;31595;51.418;7.572;2022-12-18T02:57:53;14.82;;;8.40;;
45887;SDS011;31595;51.418;7.572;2022-12-18T03:03:02;15.57;;;9.15;;
45887;SDS011;31595;51.418;7.572;2022-12-18T03:05:35;20.85;;;11.10;;
45887;SDS011;31595;51.418;7.572;2022-12-18T03:08:08;18.42;;;9.75;;
45887;SDS011;31595;51.418;7.572;2022-12-18T03:10:41;18.00;;;9.30;;
45887;SDS011;31595;51.418;7.572;2022-12-18T03:13:15;15.00;;;8.45;;
45887;SDS011;31595;51.418;7.572;2022-12-18T03:15:47;11.95;;;7.45;;
45887;SDS011;31595;51.418;7.572;2022-12-18T03:18:19;12.70;;;7.43;;
45887;SDS011;31595;51.418;7.572;2022-12-18T03:20:50;15.07;;;8.35;;
45887;SDS011;31595;51.418;7.572;2022-12-18T03:23:22;11.43;;;7.10;;
45887;SDS011;31595;51.418;7.572;2022-12-18T03:25:55;10.82;;;6.22;;
45887;SDS011;31595;51.418;7.572;2022-12-18T03:28:27;8.27;;;5.50;;
45887;SDS011;31595;51.418;7.572;2022-12-18T03:30:58;10.38;;;5.82;;
45887;SDS011;31595;51.418;7.572;2022-12-18T03:33:29;9.52;;;6.28;;
45887;SDS011;31595;51.418;7.572;2022-12-18T03:36:01;8.60;;;5.85;;
45887;SDS011;31595;51.418;7.572;2022-12-18T03:38:29;7.60;;;4.97;;
45887;SDS011;31595;51.418;7.572;2022-12-18T03:40:58;10.38;;;6.00;;
45887;SDS011;31595;51.418;7.572;2022-12-18T03:43:34;8.52;;;5.57;;
45887;SDS011;31595;51.418;7.572;2022-12-18T03:46:11;8.27;;;5.45;;
45887;SDS011;31595;51.418;7.572;2022-12-18T03:48:44;8.55;;;5.13;;
45887;SDS011;31595;51.418;7.572;2022-12-18T03:51:17;9.10;;;5.70;;
45887;SDS011;31595;51.418;7.572;2022-12-18T03:53:51;11.00;;;6.78;;
45887;SDS011;31595;51.418;7.572;2022-12-18T03:56:23;17.77;;;9.63;;
45887;SDS011;31595;51.418;7.572;2022-12-18T03:58:56;19.02;;;9.02;;
45887;SDS011;31595;51.418;7.572;2022-12-18T04:01:28;21.17;;;11.95;;
45887;SDS011;31595;51.418;7.572;2022-12-18T04:03:59;19.92;;;11.00;;
45887;SDS011;31595;51.418;7.572;2022-12-18T04:06:28;22.67;;;12.75;;
45887;SDS011;31595;51.418;7.572;2022-12-18T04:08:57;23.52;;;14.10;;
45887;SDS011;31595;51.418;7.572;2022-12-18T04:11:25;22.45;;;12.73;;
45887;SDS011;31595;51.418;7.572;2022-12-18T04:13:58;16.63;;;9.73;;
45887;SDS011;31595;51.418;7.572;2022-12-18T04:16:28;15.18;;;9.73;;
45887;SDS011;31595;51.418;7.572;2022-12-18T04:18:56;14.68;;;8.85;;
45887;SDS011;31595;51.418;7.572;2022-12-18T04:21:23;17.83;;;8.88;;
45887;SDS011;31595;51.418;7.572;2022-12-18T04:23:50;15.20;;;9.45;;
45887;SDS011;31595;51.418;7.572;2022-12-18T04:26:17;14.48;;;8.15;;
45887;SDS011;31595;51.418;7.572;2022-12-18T04:28:48;17.95;;;9.13;;
45887;SDS011;31595;51.418;7.572;2022-12-18T04:31:16;15.45;;;8.77;;
45887;SDS011;31595;51.418;7.572;2022-12-18T04:33:43;14.93;;;8.00;;
45887;SDS011;31595;51.418;7.572;2022-12-18T04:36:11;16.02;;;8.30;;
45887;SDS011;31595;51.418;7.572;2022-12-18T04:38:38;17.05;;;8.95;;
45887;SDS011;31595;51.418;7.572;2022-12-18T04:41:05;12.32;;;6.78;;
45887;SDS011;31595;51.418;7.572;2022-12-18T04:43:33;17.08;;;8.70;;
45887;SDS011;31595;51.418;7.572;2022-12-18T04:46:03;14.32;;;8.30;;
45887;SDS011;31595;51.418;7.572;2022-12-18T04:48:32;12.05;;;7.70;;
45887;SDS011;31595;51.418;7.572;2022-12-18T04:50:59;14.88;;;9.88;;
45887;SDS011;31595;51.418;7.572;2022-12-18T04:53:27;17.98;;;10.55;;
45887;SDS011;31595;51.418;7.572;2022-12-18T04:56:03;20.35;;;11.85;;
45887;SDS011;31595;51.418;7.572;2022-12-18T04:58:32;16.13;;;10.50;;
45887;SDS011;31595;51.418;7.572;2022-12-18T05:00:59;16.50;;;10.00;;
45887;SDS011;31595;51.418;7.572;2022-12-18T05:03:27;20.08;;;12.32;;
45887;SDS011;31595;51.418;7.572;2022-12-18T05:05:56;23.15;;;12.95;;
45887;SDS011;31595;51.418;7.572;2022-12-18T05:08:23;22.13;;;13.07;;
45887;SDS011;31595;51.418;7.572;2022-12-18T05:10:57;20.17;;;11.68;;
45887;SDS011;31595;51.418;7.572;2022-12-18T05:13:25;20.98;;;10.63;;
45887;SDS011;31595;51.418;7.572;2022-12-18T05:15:53;15.50;;;9.82;;
45887;SDS011;31595;51.418;7.572;2022-12-18T05:18:21;17.38;;;9.55;;
45887;SDS011;31595;51.418;7.572;2022-12-18T05:20:49;15.95;;;8.80;;
45887;SDS011;31595;51.418;7.572;2022-12-18T05:23:18;14.27;;;8.35;;
45887;SDS011;31595;51.418;7.572;2022-12-18T05:25:46;16.00;;;8.90;;
45887;SDS011;31595;51.418;7.572;2022-12-18T05:28:17;13.30;;;7.35;;
45887;SDS011;31595;51.418;7.572;2022-12-18T05:30:47;13.35;;;7.80;;
45887;SDS011;31595;51.418;7.572;2022-12-18T05:33:15;16.42;;;9.55;;
45887;SDS011;31595;51.418;7.572;2022-12-18T05:35:42;17.63;;;10.57;;
45887;SDS011;31595;51.418;7.572;2022-12-18T05:38:09;18.02;;;10.75;;
45887;SDS011;31595;51.418;7.572;2022-12-18T05:40:40;21.98;;;12.77;;
45887;SDS011;31595;51.418;7.572;2022-12-18T05:43:08;20.70;;;12.15;;
45887;SDS011;31595;51.418;7.572;2022-12-18T05:45:36;19.17;;;10.95;;
45887;SDS011;31595;51.418;7.572;2022-12-18T05:48:04;21.67;;;12.90;;
45887;SDS011;31595;51.418;7.572;2022-12-18T05:50:33;19.08;;;11.48;;
45887;SDS011;31595;51.418;7.572;2022-12-18T05:53:01;18.98;;;11.68;;
45887;SDS011;31595;51.418;7.572;2022-12-18T05:55:28;19.08;;;11.65;;
45887;SDS011;31595;51.418;7.572;2022-12-18T05:57:57;19.80;;;11.23;;
45887;SDS011;31595;51.418;7.572;2022-12-18T06:00:24;20.77;;;11.45;;
45887;SDS011;31595;51.418;7.572;2022-12-18T06:02:51;17.30;;;11.38;;
45887;SDS011;31595;51.418;7.572;2022-12-18T06:05:19;20.08;;;11.50;;
45887;SDS011;31595;51.418;7.572;2022-12-18T06:07:46;17.08;;;11.20;;
45887;SDS011;31595;51.418;7.572;2022-12-18T06:10:13;18.98;;;11.27;;
45887;SDS011;31595;51.418;7.572;2022-12-18T06:12:40;17.42;;;11.00;;
45887;SDS011;31595;51.418;7.572;2022-12-18T06:15:09;21.38;;;11.05;;
45887;SDS011;31595;51.418;7.572;2022-12-18T06:17:37;15.63;;;10.07;;
45887;SDS011;31595;51.418;7.572;2022-12-18T06:20:04;18.10;;;10.88;;
45887;SDS011;31595;51.418;7.572;2022-12-18T06:22:32;15.32;;;9.52;;
45887;SDS011;31595;51.418;7.572;2022-12-18T06:25:00;18.42;;;10.35;;
45887;SDS011;31595;51.418;7.572;2022-12-18T06:27:27;15.68;;;9.63;;
45887;SDS011;31595;51.418;7.572;2022-12-18T06:29:55;17.95;;;9.90;;
45887;SDS011;31595;51.418;7.572;2022-12-18T06:32:23;15.55;;;9.85;;
45887;SDS011;31595;51.418;7.572;2022-12-18T06:34:51;15.82;;;9.10;;
45887;SDS011;31595;51.418;7.572;2022-12-18T06:37:18;15.43;;;9.05;;
45887;SDS011;31595;51.418;7.572;2022-12-18T06:39:46;14.13;;;8.70;;
45887;SDS011;31595;51.418;7.572;2022-12-18T06:42:13;13.30;;;8.30;;
45887;SDS011;31595;51.418;7.572;2022-12-18T06:44:40;13.77;;;8.07;;
45887;SDS011;31595;51.418;7.572;2022-12-18T06:47:07;13.07;;;7.32;;
45887;SDS011;31595;51.418;7.572;2022-12-18T06:49:36;9.38;;;6.57;;
45887;SDS011;31595;51.418;7.572;2022-12-18T06:52:03;6.88;;;4.75;;
45887;SDS011;31595;51.418;7.572;2022-12-18T06:54:31;8.63;;;4.20;;
45887;SDS011;31595;51.418;7.572;2022-12-18T06:56:58;6.40;;;3.40;;
45887;SDS011;31595;51.418;7.572;2022-12-18T06:59:25;7.43;;;3.38;;
45887;SDS011;31595;51.418;7.572;2022-12-18T07:01:53;7.93;;;4.07;;
45887;SDS011;31595;51.418;7.572;2022-12-18T07:04:26;6.88;;;3.72;;
45887;SDS011;31595;51.418;7.572;2022-12-18T07:06:56;5.53;;;3.00;;
45887;SDS011;31595;51.418;7.572;2022-12-18T07:09:24;8.37;;;4.70;;
45887;SDS011;31595;51.418;7.572;2022-12-18T07:11:51;8.40;;;4.28;;
45887;SDS011;31595;51.418;7.572;2022-12-18T07:14:18;6.38;;;3.63;;
45887;SDS011;31595;51.418;7.572;2022-12-18T07:16:46;5.50;;;3.38;;
45887;SDS011;31595;51.418;7.572;2022-12-18T07:19:13;5.85;;;3.38;;
45887;SDS011;31595;51.418;7.572;2022-12-18T07:21:40;7.30;;;3.63;;
45887;SDS011;31595;51.418;7.572;2022-12-18T07:24:09;7.43;;;3.83;;
45887;SDS011;31595;51.418;7.572;2022-12-18T07:26:36;6.00;;;3.08;;
45887;SDS011;31595;51.418;7.572;2022-12-18T07:29:03;6.80;;;3.42;;
45887;SDS011;31595;51.418;7.572;2022-12-18T07:31:31;5.93;;;3.03;;
45887;SDS011;31595;51.418;7.572;2022-12-18T07:33:58;5.22;;;3.20;;
45887;SDS011;31595;51.418;7.572;2022-12-18T07:36:26;6.70;;;3.28;;
45887;SDS011;31595;51.418;7.572;2022-12-18T07:38:53;6.10;;;3.58;;
45887;SDS011;31595;51.418;7.572;2022-12-18T07:41:25;6.63;;;3.30;;
45887;SDS011;31595;51.418;7.572;2022-12-18T07:43:52;6.18;;;3.45;;
45887;SDS011;31595;51.418;7.572;2022-12-18T07:46:19;7.22;;;4.05;;
45887;SDS011;31595;51.418;7.572;2022-12-18T07:48:47;5.30;;;3.25;;
45887;SDS011;31595;51.418;7.572;2022-12-18T07:51:17;5.47;;;3.47;;
45887;SDS011;31595;51.418;7.572;2022-12-18T07:53:47;5.90;;;3.13;;
45887;SDS011;31595;51.418;7.572;2022-12-18T07:56:15;5.20;;;3.30;;
45887;SDS011;31595;51.418;7.572;2022-12-18T07:58:43;5.82;;;3.03;;
45887;SDS011;31595;51.418;7.572;2022-12-18T08:01:11;7.35;;;4.70;;
45887;SDS011;31595;51.418;7.572;2022-12-18T08:03:40;6.45;;;3.72;;
45887;SDS011;31595;51.418;7.572;2022-12-18T08:06:08;6.30;;;4.38;;
45887;SDS011;31595;51.418;7.572;2022-12-18T08:08:36;6.50;;;4.03;;
45887;SDS011;31595;51.418;7.572;2022-12-18T08:11:04;7.03;;;4.60;;
45887;SDS011;31595;51.418;7.572;2022-12-18T08:13:31;8.27;;;5.25;;
45887;SDS011;31595;51.418;7.572;2022-12-18T08:16:02;8.98;;;5.35;;
45887;SDS011;31595;51.418;7.572;2022-12-18T08:18:34;13.98;;;7.45;;
45887;SDS011;31595;51.418;7.572;2022-12-18T08:21:08;9.88;;;5.55;;
45887;SDS011;31595;51.418;7.572;2022-12-18T08:23:36;8.27;;;4.97;;
45887;SDS011;31595;51.418;7.572;2022-12-18T08:28:33;6.45;;;3.30;;
45887;SDS011;31595;51.418;7.572;2022-12-18T08:31:02;8.95;;;5.03;;
45887;SDS011;31595;51.418;7.572;2022-12-18T08:33:31;7.95;;;5.65;;
45887;SDS011;31595;51.418;7.572;2022-12-18T08:35:59;8.65;;;5.88;;
45887;SDS011;31595;51.418;7.572;2022-12-18T08:38:27;5.30;;;3.65;;
45887;SDS011;31595;51.418;7.572;2022-12-18T08:40:57;6.07;;;3.70;;
45887;SDS011;31595;51.418;7.572;2022-12-18T08:43:27;6.50;;;3.67;;
45887;SDS011;31595;51.418;7.572;2022-12-18T08:46:13;4.82;;;3.45;;
45887;SDS011;31595;51.418;7.572;2022-12-18T08:48:46;6.43;;;3.97;;
45887;SDS011;31595;51.418;7.572;2022-12-18T08:51:15;5.90;;;3.88;;
45887;SDS011;31595;51.418;7.572;2022-12-18T08:53:43;4.20;;;3.00;;
45887;SDS011;31595;51.418;7.572;2022-12-18T08:56:11;4.93;;;3.30;;
45887;SDS011;31595;51.418;7.572;2022-12-18T08:58:39;4.93;;;3.20;;
45887;SDS011;31595;51.418;7.572;2022-12-18T09:01:08;4.25;;;2.83;;
45887;SDS011;31595;51.418;7.572;2022-12-18T09:03:37;4.13;;;2.72;;
45887;SDS011;31595;51.418;7.572;2022-12-18T09:06:05;3.90;;;2.60;;
45887;SDS011;31595;51.418;7.572;2022-12-18T09:08:33;3.67;;;2.70;;
45887;SDS011;31595;51.418;7.572;2022-12-18T09:11:02;4.88;;;2.88;;
45887;SDS011;31595;51.418;7.572;2022-12-18T09:13:29;4.90;;;3.30;;
45887;SDS011;31595;51.418;7.572;2022-12-18T09:15:56;5.82;;;4.38;;
45887;SDS011;31595;51.418;7.572;2022-12-18T09:18:24;5.10;;;3.33;;
45887;SDS011;31595;51.418;7.572;2022-12-18T09:20:54;4.10;;;2.67;;
45887;SDS011;31595;51.418;7.572;2022-12-18T09:25:48;3.97;;;2.53;;
45887;SDS011;31595;51.418;7.572;2022-12-18T09:28:16;3.83;;;2.50;;
45887;SDS011;31595;51.418;7.572;2022-12-18T09:30:45;4.63;;;2.70;;
45887;SDS011;31595;51.418;7.572;2022-12-18T09:35:42;3.58;;;2.63;;
45887;SDS011;31595;51.418;7.572;2022-12-18T09:38:13;6.45;;;3.25;;
45887;SDS011;31595;51.418;7.572;2022-12-18T09:40:43;4.25;;;3.08;;
45887;SDS011;31595;51.418;7.572;2022-12-18T09:43:13;3.70;;;2.75;;
45887;SDS011;31595;51.418;7.572;2022-12-18T09:45:47;4.50;;;3.10;;
45887;SDS011;31595;51.418;7.572;2022-12-18T09:48:23;4.05;;;2.72;;
45887;SDS011;31595;51.418;7.572;2022-12-18T09:50:55;3.10;;;2.70;;
45887;SDS011;31595;51.418;7.572;2022-12-18T09:53:28;4.20;;;2.95;;
45887;SDS011;31595;51.418;7.572;2022-12-18T09:55:59;3.47;;;2.60;;
45887;SDS011;31595;51.418;7.572;2022-12-18T09:58:30;4.03;;;2.63;;
45887;SDS011;31595;51.418;7.572;2022-12-18T10:01:01;3.75;;;2.47;;
45887;SDS011;31595;51.418;7.572;2022-12-18T10:03:28;3.67;;;2.60;;
45887;SDS011;31595;51.418;7.572;2022-12-18T10:05:59;4.07;;;2.58;;
45887;SDS011;31595;51.418;7.572;2022-12-18T10:08:36;4.25;;;2.70;;
45887;SDS011;31595;51.418;7.572;2022-12-18T10:11:19;3.75;;;2.85;;
45887;SDS011;31595;51.418;7.572;2022-12-18T10:13:58;4.78;;;2.85;;
45887;SDS011;31595;51.418;7.572;2022-12-18T10:16:35;3.65;;;2.70;;
45887;SDS011;31595;51.418;7.572;2022-12-18T10:19:11;5.93;;;2.50;;
45887;SDS011;31595;51.418;7.572;2022-12-18T10:21:48;4.82;;;3.15;;
45887;SDS011;31595;51.418;7.572;2022-12-18T10:24:26;4.78;;;3.08;;
45887;SDS011;31595;51.418;7.572;2022-12-18T10:26:58;5.30;;;3.28;;
45887;SDS011;31595;51.418;7.572;2022-12-18T10:29:35;3.35;;;2.20;;
45887;SDS011;31595;51.418;7.572;2022-12-18T10:32:09;3.35;;;2.53;;
45887;SDS011;31595;51.418;7.572;2022-12-18T10:34:45;4.75;;;2.70;;
45887;SDS011;31595;51.418;7.572;2022-12-18T10:37:14;2.78;;;2.20;;
45887;SDS011;31595;51.418;7.572;2022-12-18T10:39:46;4.20;;;2.95;;
45887;SDS011;31595;51.418;7.572;2022-12-18T10:42:31;4.57;;;2.33;;
45887;SDS011;31595;51.418;7.572;2022-12-18T10:45:02;3.28;;;2.10;;
45887;SDS011;31595;51.418;7.572;2022-12-18T10:47:32;3.92;;;2.50;;
45887;SDS011;31595;51.418;7.572;2022-12-18T10:50:01;3.00;;;2.30;;
45887;SDS011;31595;51.418;7.572;2022-12-18T10:52:28;4.63;;;2.88;;
45887;SDS011;31595;51.418;7.572;2022-12-18T10:54:58;4.05;;;3.10;;
45887;SDS011;31595;51.418;7.572;2022-12-18T10:57:33;4.93;;;3.33;;
45887;SDS011;31595;51.418;7.572;2022-12-18T11:02:49;3.83;;;2.83;;
45887;SDS011;31595;51.418;7.572;2022-12-18T11:05:24;4.13;;;2.65;;
45887;SDS011;31595;51.418;7.572;2022-12-18T11:07:53;4.30;;;3.13;;
45887;SDS011;31595;51.418;7.572;2022-12-18T11:10:25;3.33;;;2.47;;
45887;SDS011;31595;51.418;7.572;2022-12-18T11:12:56;5.50;;;2.60;;
45887;SDS011;31595;51.418;7.572;2022-12-18T11:15:39;5.63;;;4.45;;
45887;SDS011;31595;51.418;7.572;2022-12-18T11:18:14;3.25;;;2.25;;
45887;SDS011;31595;51.418;7.572;2022-12-18T11:20:50;4.38;;;3.10;;
45887;SDS011;31595;51.418;7.572;2022-12-18T11:23:18;3.90;;;2.47;;
45887;SDS011;31595;51.418;7.572;2022-12-18T11:25:57;3.30;;;2.30;;
45887;SDS011;31595;51.418;7.572;2022-12-18T11:28:28;5.68;;;2.13;;
45887;SDS011;31595;51.418;7.572;2022-12-18T11:31:09;2.47;;;2.00;;
45887;SDS011;31595;51.418;7.572;2022-12-18T11:33:44;2.83;;;2.13;;
45887;SDS011;31595;51.418;7.572;2022-12-18T11:36:15;2.78;;;1.70;;
45887;SDS011;31595;51.418;7.572;2022-12-18T11:38:44;4.97;;;2.22;;
45887;SDS011;31595;51.418;7.572;2022-12-18T11:43:48;4.90;;;2.75;;
45887;SDS011;31595;51.418;7.572;2022-12-18T11:46:23;3.60;;;2.00;;
45887;SDS011;31595;51.418;7.572;2022-12-18T11:48:58;4.30;;;3.10;;
45887;SDS011;31595;51.418;7.572;2022-12-18T11:51:38;3.50;;;2.35;;
45887;SDS011;31595;51.418;7.572;2022-12-18T11:54:14;3.33;;;2.47;;
45887;SDS011;31595;51.418;7.572;2022-12-18T11:56:45;3.88;;;2.17;;
45887;SDS011;31595;51.418;7.572;2022-12-18T11:59:15;3.88;;;1.90;;
45887;SDS011;31595;51.418;7.572;2022-12-18T12:01:52;3.88;;;2.20;;
45887;SDS011;31595;51.418;7.572;2022-12-18T12:07:35;3.88;;;2.78;;
45887;SDS011;31595;51.418;7.572;2022-12-18T12:10:18;4.18;;;2.85;;
45887;SDS011;31595;51.418;7.572;2022-12-18T12:13:06;3.92;;;2.30;;
45887;SDS011;31595;51.418;7.572;2022-12-18T12:15:43;4.63;;;3.22;;
45887;SDS011;31595;51.418;7.572;2022-12-18T12:18:23;2.50;;;1.90;;
45887;SDS011;31595;51.418;7.572;2022-12-18T12:21:02;3.72;;;2.50;;
45887;SDS011;31595;51.418;7.572;2022-12-18T12:23:38;7.90;;;2.38;;
45887;SDS011;31595;51.418;7.572;2022-12-18T12:26:15;3.30;;;2.15;;
45887;SDS011;31595;51.418;7.572;2022-12-18T12:31:52;3.20;;;2.17;;
45887;SDS011;31595;51.418;7.572;2022-12-18T12:34:34;3.67;;;2.20;;
45887;SDS011;31595;51.418;7.572;2022-12-18T12:37:11;2.50;;;1.70;;
45887;SDS011;31595;51.418;7.572;2022-12-18T12:39:46;6.22;;;2.67;;
45887;SDS011;31595;51.418;7.572;2022-12-18T12:42:15;3.17;;;2.10;;
45887;SDS011;31595;51.418;7.572;2022-12-18T12:45:13;3.38;;;2.22;;
45887;SDS011;31595;51.418;7.572;2022-12-18T12:47:45;4.18;;;2.20;;
45887;SDS011;31595;51.418;7.572;2022-12-18T12:50:18;5.18;;;2.92;;
45887;SDS011;31595;51.418;7.572;2022-12-18T12:52:47;5.07;;;2.75;;
45887;SDS011;31595;51.418;7.572;2022-12-18T12:55:19;9.07;;;5.32;;
45887;SDS011;31595;51.418;7.572;2022-12-18T12:57:50;5.80;;;3.13;;
45887;SDS011;31595;51.418;7.572;2022-12-18T13:00:25;7.82;;;5.72;;
45887;SDS011;31595;51.418;7.572;2022-12-18T13:02:59;6.85;;;4.47;;
45887;SDS011;31595;51.418;7.572;2022-12-18T13:05:38;7.65;;;4.35;;
45887;SDS011;31595;51.418;7.572;2022-12-18T13:08:09;20.50;;;11.77;;
45887;SDS011;31595;51.418;7.572;2022-12-18T13:10:38;8.52;;;5.40;;
45887;SDS011;31595;51.418;7.572;2022-12-18T13:13:07;8.47;;;5.27;;
45887;SDS011;31595;51.418;7.572;2022-12-18T13:15:40;7.95;;;4.65;;
45887;SDS011;31595;51.418;7.572;2022-12-18T13:18:11;15.50;;;8.05;;
45887;SDS011;31595;51.418;7.572;2022-12-18T13:20:42;14.90;;;9.75;;
45887;SDS011;31595;51.418;7.572;2022-12-18T13:28:56;8.23;;;4.57;;
45887;SDS011;31595;51.418;7.572;2022-12-18T13:43:22;16.92;;;5.85;;
45887;SDS011;31595;51.418;7.572;2022-12-18T13:46:06;14.88;;;6.75;;
45887;SDS011;31595;51.418;7.572;2022-12-18T13:48:50;20.35;;;8.95;;
45887;SDS011;31595;51.418;7.572;2022-12-18T13:51:22;20.75;;;11.02;;
45887;SDS011;31595;51.418;7.572;2022-12-18T13:53:51;30.00;;;13.80;;
45887;SDS011;31595;51.418;7.572;2022-12-18T13:56:22;21.48;;;9.93;;
45887;SDS011;31595;51.418;7.572;2022-12-18T14:01:50;17.50;;;7.35;;
45887;SDS011;31595;51.418;7.572;2022-12-18T14:04:23;20.42;;;7.72;;
45887;SDS011;31595;51.418;7.572;2022-12-18T14:06:54;20.27;;;6.40;;
45887;SDS011;31595;51.418;7.572;2022-12-18T14:09:26;11.93;;;5.68;;
45887;SDS011;31595;51.418;7.572;2022-12-18T14:11:59;14.00;;;6.35;;
45887;SDS011;31595;51.418;7.572;2022-12-18T14:14:46;66.63;;;28.33;;
45887;SDS011;31595;51.418;7.572;2022-12-18T14:17:15;19.65;;;10.60;;
45887;SDS011;31595;51.418;7.572;2022-12-18T14:19:43;14.70;;;7.63;;
45887;SDS011;31595;51.418;7.572;2022-12-18T14:22:18;14.93;;;7.85;;
45887;SDS011;31595;51.418;7.572;2022-12-18T14:24:47;15.70;;;7.90;;
45887;SDS011;31595;51.418;7.572;2022-12-18T14:27:37;17.35;;;8.32;;
45887;SDS011;31595;51.418;7.572;2022-12-18T14:30:22;14.82;;;9.57;;
45887;SDS011;31595;51.418;7.572;2022-12-18T14:32:59;20.80;;;12.68;;
45887;SDS011;31595;51.418;7.572;2022-12-18T14:35:27;11.73;;;7.32;;
45887;SDS011;31595;51.418;7.572;2022-12-18T14:38:09;9.68;;;6.43;;
45887;SDS011;31595;51.418;7.572;2022-12-18T14:40:48;7.45;;;5.32;;
45887;SDS011;31595;51.418;7.572;2022-12-18T14:43:19;9.77;;;5.53;;
45887;SDS011;31595;51.418;7.572;2022-12-18T14:45:47;7.10;;;5.60;;
45887;SDS011;31595;51.418;7.572;2022-12-18T14:48:16;9.48;;;5.22;;
45887;SDS011;31595;51.418;7.572;2022-12-18T14:50:53;8.00;;;5.15;;
45887;SDS011;31595;51.418;7.572;2022-12-18T14:53:26;8.18;;;5.65;;
45887;SDS011;31595;51.418;7.572;2022-12-18T14:56:00;11.15;;;7.20;;
45887;SDS011;31595;51.418;7.572;2022-12-18T14:58:28;8.93;;;5.95;;
45887;SDS011;31595;51.418;7.572;2022-12-18T15:00:55;10.10;;;6.10;;
45887;SDS011;31595;51.418;7.572;2022-12-18T15:03:23;8.35;;;5.95;;
45887;SDS011;31595;51.418;7.572;2022-12-18T15:05:50;8.93;;;5.43;;
45887;SDS011;31595;51.418;7.572;2022-12-18T15:08:29;14.57;;;8.70;;
45887;SDS011;31595;51.418;7.572;2022-12-18T15:11:01;11.13;;;7.40;;
45887;SDS011;31595;51.418;7.572;2022-12-18T15:13:29;8.75;;;6.07;;
45887;SDS011;31595;51.418;7.572;2022-12-18T15:15:57;9.25;;;6.53;;
45887;SDS011;31595;51.418;7.572;2022-12-18T15:18:29;12.65;;;7.90;;
45887;SDS011;31595;51.418;7.572;2022-12-18T15:20:59;8.60;;;5.65;;
45887;SDS011;31595;51.418;7.572;2022-12-18T15:23:37;10.13;;;6.28;;
45887;SDS011;31595;51.418;7.572;2022-12-18T15:26:14;7.78;;;5.28;;
45887;SDS011;31595;51.418;7.572;2022-12-18T15:28:43;10.25;;;6.07;;
45887;SDS011;31595;51.418;7.572;2022-12-18T15:31:22;8.18;;;5.80;;
45887;SDS011;31595;51.418;7.572;2022-12-18T15:34:09;10.25;;;6.45;;
45887;SDS011;31595;51.418;7.572;2022-12-18T15:36:45;9.68;;;6.05;;
45887;SDS011;31595;51.418;7.572;2022-12-18T15:39:13;11.20;;;7.15;;
45887;SDS011;31595;51.418;7.572;2022-12-18T15:41:41;10.30;;;6.83;;
45887;SDS011;31595;51.418;7.572;2022-12-18T15:44:29;10.45;;;6.97;;
45887;SDS011;31595;51.418;7.572;2022-12-18T15:46:55;11.45;;;7.53;;
45887;SDS011;31595;51.418;7.572;2022-12-18T15:49:22;10.70;;;7.80;;